createdAt,value
2018-09-25T00:01:06.230Z,6.40
2018-09-25T00:03:40.146Z,6.30
2018-09-25T00:06:13.519Z,6.30
2018-09-25T00:08:47.905Z,6.30
2018-09-25T00:11:21.708Z,6.30
2018-09-25T00:13:55.652Z,6.30
2018-09-25T00:16:29.321Z,6.30
2018-09-25T00:19:03.019Z,6.30
2018-09-25T00:21:36.697Z,6.20
2018-09-25T00:24:10.525Z,6.10
2018-09-25T00:26:44.913Z,6.10
2018-09-25T00:29:18.621Z,6.00
2018-09-25T00:31:52.272Z,6.00
2018-09-25T00:34:26.005Z,6.00
2018-09-25T00:36:59.711Z,5.90
2018-09-25T00:39:34.108Z,5.90
2018-09-25T00:42:08.188Z,5.80
2018-09-25T00:44:46.039Z,5.80
2018-09-25T00:47:21.021Z,5.70
2018-09-25T00:49:54.837Z,5.50
2018-09-25T00:52:28.521Z,5.30
2018-09-25T00:55:02.496Z,5.50
2018-09-25T00:57:36.265Z,5.50
2018-09-25T01:00:10.613Z,5.50
2018-09-25T01:02:44.328Z,5.50
2018-09-25T01:05:18.340Z,5.60
2018-09-25T01:07:52.756Z,5.60
2018-09-25T01:10:26.539Z,5.60
2018-09-25T01:13:01.471Z,5.60
2018-09-25T01:15:35.664Z,5.60
2018-09-25T01:18:10.200Z,5.40
2018-09-25T01:20:45.041Z,5.40
2018-09-25T01:23:18.781Z,5.50
2018-09-25T01:25:52.747Z,5.50
2018-09-25T01:28:27.244Z,5.50
2018-09-25T01:31:01.020Z,5.50
2018-09-25T01:33:35.488Z,5.50
2018-09-25T01:36:09.744Z,5.50
2018-09-25T01:38:44.341Z,5.40
2018-09-25T01:41:19.275Z,5.50
2018-09-25T01:43:59.768Z,5.40
2018-09-25T01:46:34.296Z,5.40
2018-09-25T01:49:07.948Z,5.30
2018-09-25T01:51:41.456Z,5.30
2018-09-25T01:54:15.371Z,5.10
2018-09-25T01:56:49.055Z,5.00
2018-09-25T01:59:23.856Z,4.90
2018-09-25T02:01:57.440Z,4.90
2018-09-25T02:04:31.681Z,4.90
2018-09-25T02:07:05.354Z,4.90
2018-09-25T02:09:39.084Z,4.90
2018-09-25T02:12:13.825Z,4.80
2018-09-25T02:14:48.006Z,4.80
2018-09-25T02:17:22.735Z,4.80
2018-09-25T02:20:03.244Z,4.80
2018-09-25T02:22:36.716Z,4.80
2018-09-25T02:25:11.048Z,4.80
2018-09-25T02:27:45.682Z,4.70
2018-09-25T02:30:20.413Z,4.70
2018-09-25T02:32:55.027Z,4.70
2018-09-25T02:35:28.791Z,4.70
2018-09-25T02:38:02.336Z,4.70
2018-09-25T02:40:38.087Z,4.70
2018-09-25T02:43:12.179Z,4.70
2018-09-25T02:45:49.544Z,4.70
2018-09-25T02:48:24.885Z,4.60
2018-09-25T02:50:58.581Z,4.70
2018-09-25T02:53:32.398Z,4.70
2018-09-25T02:56:06.601Z,4.80
2018-09-25T02:58:40.918Z,4.80
2018-09-25T03:01:15.204Z,4.80
2018-09-25T03:03:49.088Z,4.70
2018-09-25T03:06:22.846Z,4.70
2018-09-25T03:08:58.622Z,4.60
2018-09-25T03:11:32.176Z,4.60
2018-09-25T03:14:05.808Z,4.50
2018-09-25T03:16:40.066Z,4.40
2018-09-25T03:19:13.977Z,4.40
2018-09-25T03:21:47.861Z,4.40
2018-09-25T03:24:22.280Z,4.30
2018-09-25T03:26:55.970Z,4.30
2018-09-25T03:29:29.769Z,4.30
2018-09-25T03:32:04.288Z,4.30
2018-09-25T03:34:39.416Z,4.30
2018-09-25T03:37:14.372Z,4.30
2018-09-25T03:39:48.141Z,4.30
2018-09-25T03:42:21.897Z,4.30
2018-09-25T03:44:55.648Z,4.30
2018-09-25T03:47:29.497Z,4.40
2018-09-25T03:50:03.095Z,4.30
2018-09-25T03:52:39.078Z,4.40
2018-09-25T03:55:12.960Z,4.30
2018-09-25T03:57:47.176Z,4.40
2018-09-25T04:00:21.698Z,4.40
2018-09-25T04:02:55.530Z,4.40
2018-09-25T04:05:28.989Z,4.30
2018-09-25T04:08:02.840Z,4.30
2018-09-25T04:10:36.561Z,4.20
2018-09-25T04:13:11.351Z,4.20
2018-09-25T04:15:45.333Z,4.20
2018-09-25T04:18:19.608Z,4.10
2018-09-25T04:20:54.663Z,4.20
2018-09-25T04:23:28.464Z,4.30
2018-09-25T04:26:02.795Z,4.30
2018-09-25T04:28:37.593Z,4.20
2018-09-25T04:31:11.297Z,4.20
2018-09-25T04:33:47.153Z,4.00
2018-09-25T04:36:21.494Z,4.00
2018-09-25T04:38:55.003Z,3.80
2018-09-25T04:41:28.803Z,3.70
2018-09-25T04:44:03.148Z,3.80
2018-09-25T04:46:36.634Z,3.80
2018-09-25T04:49:11.252Z,3.80
2018-09-25T04:51:44.822Z,3.80
2018-09-25T04:54:18.377Z,3.70
2018-09-25T04:56:52.212Z,3.60
2018-09-25T04:59:25.795Z,3.60
2018-09-25T05:01:59.571Z,3.70
2018-09-25T05:04:33.142Z,3.70
2018-09-25T05:07:06.852Z,3.70
2018-09-25T05:09:42.729Z,3.60
2018-09-25T05:12:16.246Z,3.60
2018-09-25T05:14:49.993Z,3.70
2018-09-25T05:17:23.489Z,3.70
2018-09-25T05:19:57.618Z,3.80
2018-09-25T05:22:31.228Z,3.80
2018-09-25T05:25:05.577Z,3.70
2018-09-25T05:27:39.344Z,3.80
2018-09-25T05:30:13.320Z,3.90
2018-09-25T05:32:49.670Z,3.90
2018-09-25T05:35:23.439Z,3.90
2018-09-25T05:37:57.913Z,3.80
2018-09-25T05:40:31.626Z,3.90
2018-09-25T05:43:05.304Z,4.10
2018-09-25T05:45:39.002Z,4.20
2018-09-25T05:48:12.760Z,4.10
2018-09-25T05:50:46.783Z,4.20
2018-09-25T05:53:21.267Z,4.10
2018-09-25T05:55:55.131Z,4.30
2018-09-25T05:58:29.076Z,4.30
2018-09-25T06:01:03.440Z,4.30
2018-09-25T06:03:36.915Z,4.20
2018-09-25T06:06:10.802Z,4.20
2018-09-25T06:08:44.653Z,4.30
2018-09-25T06:11:19.156Z,4.50
2018-09-25T06:13:54.368Z,4.60
2018-09-25T06:16:28.298Z,4.70
2018-09-25T06:19:01.961Z,4.70
2018-09-25T06:21:36.077Z,4.70
2018-09-25T06:24:10.400Z,4.70
2018-09-25T06:26:44.422Z,4.30
2018-09-25T06:29:18.232Z,4.10
2018-09-25T06:31:52.373Z,4.10
2018-09-25T06:34:28.462Z,4.20
2018-09-25T06:37:03.551Z,4.30
2018-09-25T06:39:37.083Z,4.30
2018-09-25T06:42:10.826Z,4.40
2018-09-25T06:44:44.636Z,4.50
2018-09-25T06:47:18.125Z,4.70
2018-09-25T06:49:52.831Z,4.80
2018-09-25T06:52:26.384Z,4.80
2018-09-25T06:54:59.985Z,4.90
2018-09-25T06:57:35.164Z,5.00
2018-09-25T07:00:08.659Z,5.00
2018-09-25T07:02:44.728Z,5.00
2018-09-25T07:05:18.583Z,5.00
2018-09-25T07:07:52.133Z,5.20
2018-09-25T07:10:25.922Z,5.40
2018-09-25T07:12:59.495Z,5.60
2018-09-25T07:15:33.396Z,6.50
2018-09-25T07:18:07.151Z,8.80
2018-09-25T07:20:47.996Z,10.70
2018-09-25T07:23:24.369Z,11.90
2018-09-25T07:25:59.396Z,13.30
2018-09-25T07:28:33.236Z,13.80
2018-09-25T07:31:07.759Z,12.20
2018-09-25T07:33:41.892Z,12.90
2018-09-25T07:36:15.590Z,13.80
2018-09-25T07:38:49.254Z,14.90
2018-09-25T07:41:22.747Z,13.30
2018-09-25T07:43:56.403Z,13.50
2018-09-25T07:46:30.005Z,13.70
2018-09-25T07:49:03.976Z,13.30
2018-09-25T07:51:37.585Z,12.80
2018-09-25T07:54:11.198Z,12.90
2018-09-25T07:56:45.198Z,12.60
2018-09-25T07:59:18.829Z,14.20
2018-09-25T08:01:52.313Z,13.40
2018-09-25T08:04:25.780Z,14.60
2018-09-25T08:06:59.626Z,13.40
2018-09-25T08:09:35.656Z,13.50
2018-09-25T08:12:13.404Z,14.60
2018-09-25T08:14:47.157Z,14.80
2018-09-25T08:17:20.832Z,16.40
2018-09-25T08:19:56.337Z,14.10
2018-09-25T08:22:30.628Z,15.80
2018-09-25T08:25:05.149Z,15.30
2018-09-25T08:27:40.478Z,15.60
2018-09-25T08:30:17.000Z,16.30
2018-09-25T08:32:52.628Z,16.10
2018-09-25T08:35:26.088Z,14.40
2018-09-25T08:38:01.616Z,14.60
2018-09-25T08:40:36.351Z,14.50
2018-09-25T08:43:11.966Z,16.10
2018-09-25T08:45:48.175Z,15.80
2018-09-25T08:48:21.820Z,16.00
2018-09-25T08:50:55.316Z,17.20
2018-09-25T08:53:28.963Z,14.90
2018-09-25T08:56:03.520Z,15.60
2018-09-25T08:58:39.612Z,15.60
2018-09-25T09:01:13.954Z,13.60
2018-09-25T09:03:47.632Z,11.70
2018-09-25T09:06:22.666Z,11.40
2018-09-25T09:08:56.336Z,10.90
2018-09-25T09:11:30.015Z,10.70
2018-09-25T09:14:03.490Z,10.20
2018-09-25T09:16:37.729Z,10.40
2018-09-25T09:19:12.263Z,10.10
2018-09-25T09:21:46.958Z,10.30
2018-09-25T09:24:20.657Z,10.90
2018-09-25T09:26:55.369Z,10.90
2018-09-25T09:29:29.279Z,11.50
2018-09-25T09:32:03.316Z,11.80
2018-09-25T09:34:37.285Z,11.80
2018-09-25T09:37:11.056Z,12.20
2018-09-25T09:39:44.824Z,12.30
2018-09-25T09:42:18.725Z,12.40
2018-09-25T09:44:52.471Z,12.10
2018-09-25T09:47:28.195Z,11.90
2018-09-25T09:50:02.198Z,11.90
2018-09-25T09:52:36.346Z,12.10
2018-09-25T09:55:14.182Z,12.10
2018-09-25T09:57:49.001Z,11.50
2018-09-25T10:00:22.879Z,11.50
2018-09-25T10:02:57.318Z,11.60
2018-09-25T10:05:31.125Z,11.70
2018-09-25T10:08:05.704Z,11.20
2018-09-25T10:10:42.750Z,11.10
2018-09-25T10:13:16.203Z,11.30
2018-09-25T10:15:50.660Z,11.30
2018-09-25T10:18:24.714Z,11.20
2018-09-25T10:21:00.608Z,11.30
2018-09-25T10:23:34.690Z,11.40
2018-09-25T10:26:10.344Z,11.50
2018-09-25T10:28:46.577Z,11.30
2018-09-25T10:31:20.582Z,11.60
2018-09-25T10:33:54.256Z,12.00
2018-09-25T10:36:27.943Z,12.10
2018-09-25T10:39:02.395Z,11.90
2018-09-25T10:41:37.076Z,11.90
2018-09-25T10:44:11.197Z,12.30
2018-09-25T10:46:46.783Z,12.60
2018-09-25T10:49:20.360Z,12.20
2018-09-25T10:51:58.834Z,12.10
2018-09-25T10:54:34.793Z,12.20
2018-09-25T10:57:08.904Z,12.20
2018-09-25T10:59:42.622Z,12.50
2018-09-25T11:02:16.717Z,12.70
2018-09-25T11:04:50.522Z,12.70
2018-09-25T11:07:24.432Z,12.50
2018-09-25T11:09:58.330Z,12.60
2018-09-25T11:12:32.632Z,12.70
2018-09-25T11:15:07.368Z,12.80
2018-09-25T11:17:40.883Z,12.90
2018-09-25T11:20:15.367Z,12.70
2018-09-25T11:22:48.993Z,12.80
2018-09-25T11:25:22.534Z,13.10
2018-09-25T11:27:56.343Z,13.40
2018-09-25T11:30:31.882Z,13.20
2018-09-25T11:33:07.257Z,13.00
2018-09-25T11:38:20.646Z,12.90
2018-09-25T11:41:08.205Z,12.90
2018-09-25T11:44:00.201Z,13.10
2018-09-25T11:50:16.428Z,13.20
2018-09-25T11:52:54.680Z,14.00
2018-09-25T11:55:30.808Z,13.40
2018-09-25T11:58:09.237Z,13.00
2018-09-25T12:00:52.539Z,13.20
2018-09-25T12:03:27.741Z,13.40
2018-09-25T12:06:19.425Z,13.30
2018-09-25T12:09:01.663Z,13.00
2018-09-25T12:11:36.383Z,13.30
2018-09-25T12:17:27.468Z,13.20
2018-09-25T12:20:08.651Z,13.10
2018-09-25T12:22:46.531Z,13.40
2018-09-25T12:25:34.177Z,13.50
2018-09-25T12:28:33.368Z,13.80
2018-09-25T12:31:18.705Z,13.90
2018-09-25T12:34:07.664Z,13.80
2018-09-25T12:36:43.292Z,13.50
2018-09-25T12:39:35.871Z,13.40
2018-09-25T12:42:37.768Z,13.40
2018-09-25T12:45:13.390Z,13.30
2018-09-25T12:47:46.883Z,13.30
2018-09-25T12:50:23.971Z,13.20
2018-09-25T12:53:10.654Z,13.20
2018-09-25T12:56:13.462Z,13.00
2018-09-25T12:58:57.595Z,12.90
2018-09-25T13:01:36.010Z,12.90
2018-09-25T13:04:54.455Z,12.70
2018-09-25T13:24:30.937Z,13.40
2018-09-25T13:27:14.453Z,13.70
2018-09-25T13:30:07.334Z,13.70
2018-09-25T13:32:58.127Z,13.60
2018-09-25T13:35:37.354Z,13.50
2018-09-25T13:38:16.500Z,13.40
2018-09-25T13:40:51.791Z,13.40
2018-09-25T13:43:29.708Z,13.40
2018-09-25T13:46:24.668Z,13.20
2018-09-25T13:49:13.772Z,13.00
2018-09-25T13:52:02.008Z,12.80
2018-09-25T13:54:51.907Z,12.90
2018-09-25T13:57:36.495Z,12.80
2018-09-25T14:00:14.724Z,12.70
2018-09-25T14:02:52.334Z,12.80
2018-09-25T14:05:28.105Z,13.00
2018-09-25T14:08:05.513Z,12.90
2018-09-25T14:10:43.029Z,13.20
2018-09-25T14:13:17.716Z,13.00
2018-09-25T14:15:59.885Z,13.00
2018-09-25T14:18:46.345Z,13.10
2018-09-25T14:21:21.001Z,13.00
2018-09-25T14:24:10.132Z,13.10
2018-09-25T14:26:57.371Z,13.10
2018-09-25T14:29:43.265Z,13.30
2018-09-25T14:32:25.633Z,13.50
2018-09-25T14:38:13.800Z,13.50
2018-09-25T14:40:58.316Z,13.60
2018-09-25T14:43:38.239Z,13.70
2018-09-25T14:46:20.741Z,13.70
2018-09-25T14:48:59.194Z,13.80
2018-09-25T14:51:36.029Z,13.80
2018-09-25T14:54:10.054Z,13.80
2018-09-25T14:56:53.044Z,13.80
2018-09-25T14:59:27.203Z,13.60
2018-09-25T15:02:03.552Z,13.70
2018-09-25T15:04:39.530Z,13.40
2018-09-25T15:07:29.672Z,13.60
2018-09-25T15:10:04.788Z,13.80
2018-09-25T15:12:44.302Z,13.60
2018-09-25T15:15:18.169Z,13.80
2018-09-25T15:17:54.725Z,13.90
2018-09-25T15:20:37.426Z,13.80
2018-09-25T15:23:24.384Z,13.60
2018-09-25T15:25:58.883Z,13.60
2018-09-25T15:28:54.776Z,13.40
2018-09-25T15:35:06.435Z,13.10
2018-09-25T15:37:49.646Z,13.10
2018-09-25T15:40:34.309Z,12.90
2018-09-25T15:43:12.353Z,12.80
2018-09-25T15:45:46.589Z,12.80
2018-09-25T15:48:28.013Z,12.80
2018-09-25T15:51:09.477Z,12.70
2018-09-25T15:53:59.037Z,12.60
2018-09-25T16:00:06.407Z,12.50
2018-09-25T16:02:40.447Z,12.50
2018-09-25T16:05:15.181Z,12.50
2018-09-25T16:12:00.166Z,12.30
2018-09-25T16:14:35.150Z,12.40
2018-09-25T16:17:14.857Z,12.20
2018-09-25T16:19:53.788Z,12.20
2018-09-25T16:22:27.568Z,12.10
2018-09-25T16:25:16.089Z,12.10
2018-09-25T16:27:59.920Z,12.20
2018-09-25T16:31:12.312Z,12.20
2018-09-25T16:33:46.640Z,12.20
2018-09-25T16:36:20.440Z,12.10
2018-09-25T16:39:02.377Z,12.00
2018-09-25T16:41:41.185Z,12.00
2018-09-25T16:44:17.395Z,12.00
2018-09-25T16:46:52.537Z,11.90
2018-09-25T16:49:29.625Z,11.80
2018-09-25T16:52:08.165Z,11.80
2018-09-25T16:57:32.687Z,11.70
2018-09-25T17:00:08.276Z,11.60
2018-09-25T17:02:43.330Z,11.50
2018-09-25T17:05:22.276Z,11.50
2018-09-25T17:08:05.622Z,11.40
2018-09-25T17:10:39.316Z,11.30
2018-09-25T17:13:13.032Z,11.30
2018-09-25T17:15:48.977Z,11.20
2018-09-25T17:18:29.829Z,11.10
2018-09-25T17:21:05.535Z,11.00
2018-09-25T17:23:40.491Z,11.00
2018-09-25T17:26:23.719Z,10.90
2018-09-25T17:28:58.921Z,10.80
2018-09-25T17:31:35.330Z,10.80
2018-09-25T17:34:10.179Z,10.70
2018-09-25T17:36:51.762Z,10.70
2018-09-25T17:39:33.372Z,10.70
2018-09-25T17:42:18.500Z,10.50
2018-09-25T17:45:13.897Z,10.50
2018-09-25T17:48:04.823Z,10.40
2018-09-25T17:50:40.510Z,10.40
2018-09-25T17:53:15.598Z,10.20
2018-09-25T17:58:43.619Z,10.00
2018-09-25T18:01:29.076Z,10.00
2018-09-25T18:04:03.857Z,10.00
2018-09-25T18:06:39.425Z,9.90
2018-09-25T18:09:15.713Z,9.90
2018-09-25T18:11:56.932Z,9.90
2018-09-25T18:14:43.465Z,9.90
2018-09-25T18:17:21.531Z,9.80
2018-09-25T18:19:55.832Z,9.80
2018-09-25T18:22:30.558Z,9.70
2018-09-25T18:25:07.028Z,9.70
2018-09-25T18:27:46.981Z,9.60
2018-09-25T18:30:42.813Z,9.50
2018-09-25T18:33:18.904Z,9.50
2018-09-25T18:35:55.296Z,9.50
2018-09-25T18:38:36.602Z,9.50
2018-09-25T18:41:39.502Z,9.50
2018-09-25T18:44:14.929Z,9.40
2018-09-25T18:47:09.389Z,9.40
2018-09-25T18:49:47.733Z,9.40
2018-09-25T18:52:29.196Z,9.30
2018-09-25T18:55:03.918Z,9.00
2018-09-25T18:57:47.093Z,8.90
2018-09-25T19:00:30.062Z,8.70
2018-09-25T19:03:13.539Z,8.70
2018-09-25T19:05:48.764Z,8.70
2018-09-25T19:08:25.003Z,8.70
2018-09-25T19:11:02.882Z,8.70
2018-09-25T19:13:40.545Z,8.60
2018-09-25T19:19:03.817Z,8.50
2018-09-25T19:21:41.581Z,8.40
2018-09-25T19:24:27.676Z,8.30
2018-09-25T19:27:07.091Z,8.40
2018-09-25T19:29:45.436Z,8.30
2018-09-25T19:32:25.006Z,8.30
2018-09-25T19:35:07.207Z,8.20
2018-09-25T19:38:02.280Z,8.20
2018-09-25T19:40:42.773Z,8.00
2018-09-25T19:43:19.606Z,8.00
2018-09-25T19:46:08.827Z,7.90
2018-09-25T19:48:49.013Z,7.90
2018-09-25T19:51:26.158Z,7.70
2018-09-25T19:54:03.982Z,7.70
2018-09-25T19:56:42.902Z,7.70
2018-09-25T20:02:23.765Z,7.60
2018-09-25T20:05:15.528Z,7.50
2018-09-25T20:07:52.090Z,7.40
2018-09-25T20:10:49.112Z,7.40
2018-09-25T20:23:13.370Z,7.30
2018-09-25T20:26:19.148Z,7.30
2018-09-25T20:28:55.795Z,7.30
2018-09-25T20:31:34.266Z,7.20
2018-09-25T20:34:09.067Z,7.10
2018-09-25T20:39:50.611Z,7.00
2018-09-25T20:42:26.240Z,7.00
2018-09-25T20:45:03.015Z,7.10
2018-09-25T20:47:38.300Z,7.10
2018-09-25T20:50:23.318Z,7.00
2018-09-25T20:52:58.160Z,7.00
2018-09-25T20:55:32.866Z,7.00
2018-09-25T20:58:07.075Z,7.00
2018-09-25T21:00:42.883Z,7.00
2018-09-25T21:03:17.531Z,7.00
2018-09-25T21:05:53.339Z,6.90
2018-09-25T21:08:33.686Z,6.90
2018-09-25T21:11:09.564Z,6.70
2018-09-25T21:13:46.732Z,6.80
2018-09-25T21:16:21.093Z,6.80
2018-09-25T21:18:55.278Z,6.80
2018-09-25T21:21:29.593Z,6.80
2018-09-25T21:24:03.975Z,6.80
2018-09-25T21:26:38.348Z,6.60
2018-09-25T21:29:13.855Z,6.60
2018-09-25T21:31:50.640Z,6.60
2018-09-25T21:34:25.858Z,6.60
2018-09-25T21:37:02.416Z,6.60
2018-09-25T21:39:38.499Z,6.50
2018-09-25T21:42:13.302Z,6.50
2018-09-25T21:44:47.495Z,6.50
2018-09-25T21:47:21.682Z,6.40
2018-09-25T21:49:57.470Z,6.30
2018-09-25T21:52:41.417Z,6.20
2018-09-25T21:55:42.371Z,6.00
2018-09-25T21:58:18.370Z,6.10
2018-09-25T22:00:58.719Z,6.00
2018-09-25T22:03:33.025Z,5.90
2018-09-25T22:06:10.101Z,5.90
2018-09-25T22:08:44.385Z,5.90
2018-09-25T22:11:18.905Z,5.80
2018-09-25T22:13:54.392Z,6.00
2018-09-25T22:16:31.515Z,5.80
2018-09-25T22:19:06.326Z,5.90
2018-09-25T22:21:41.926Z,5.80
2018-09-25T22:24:17.728Z,5.80
2018-09-25T22:26:52.273Z,5.80
2018-09-25T22:29:27.732Z,5.70
2018-09-25T22:32:02.741Z,5.70
2018-09-25T22:34:37.297Z,5.70
2018-09-25T22:37:11.525Z,5.70
2018-09-25T22:39:46.825Z,5.70
2018-09-25T22:42:20.764Z,5.70
2018-09-25T22:44:56.348Z,5.70
2018-09-25T22:47:31.358Z,5.70
2018-09-25T22:50:06.067Z,5.60
2018-09-25T22:52:42.944Z,5.70
2018-09-25T22:55:17.877Z,5.60
2018-09-25T22:57:54.718Z,5.50
2018-09-25T23:00:30.162Z,5.60
2018-09-25T23:06:25.829Z,5.50
2018-09-25T23:09:00.196Z,5.40
2018-09-25T23:14:46.173Z,5.40
2018-09-25T23:17:21.059Z,5.30
2018-09-25T23:19:56.896Z,5.10
2018-09-25T23:22:31.113Z,5.10
2018-09-25T23:25:07.391Z,5.00
2018-09-25T23:27:47.647Z,5.00
2018-09-25T23:30:25.655Z,5.00
2018-09-25T23:33:00.776Z,5.00
2018-09-25T23:35:35.057Z,4.90
2018-09-25T23:38:09.108Z,4.80
2018-09-25T23:40:59.062Z,4.80
2018-09-25T23:43:33.753Z,4.60
2018-09-25T23:46:08.451Z,4.60
2018-09-25T23:48:46.632Z,4.70
2018-09-25T23:51:26.099Z,4.70
2018-09-25T23:54:00.595Z,4.70
2018-09-25T23:56:46.752Z,4.60
